Time;durP1;ratioP1;P1;durP2;ratioP2;P2;SDS_P1;SDS_P2;PMS_P1;PMS_P2;Temp;Humidity;BMP_temperature;BMP_pressure;BME280_temperature;BME280_humidity;BME280_pressure;Samples;Min_cycle;Max_cycle;Signal;HPM_P1;HPM_P2
2022/05/17 00:00:26;;;;;;;5.40;3.03;;;;;;;;;;6232618;23;20784;-53
2022/05/17 00:02:55;;;;;;;5.70;3.73;;;;;;;;;;6237512;23;20444;-54
2022/05/17 00:05:22;;;;;;;4.23;3.20;;;;;;;;;;6231843;22;20386;-53
2022/05/17 00:07:48;;;;;;;4.37;3.30;;;;;;;;;;6234237;23;20385;-53
2022/05/17 00:10:14;;;;;;;4.77;3.37;;;;;;;;;;6217967;23;20382;-54
2022/05/17 00:12:40;;;;;;;6.30;3.80;;;;;;;;;;6237583;23;20370;-53
2022/05/17 00:15:06;;;;;;;5.20;3.20;;;;;;;;;;6232633;23;20147;-53
2022/05/17 00:17:32;;;;;;;3.93;3.27;;;;;;;;;;6237496;23;20840;-53
2022/05/17 00:19:58;;;;;;;10.17;3.10;;;;;;;;;;6216461;23;20378;-53
2022/05/17 00:22:24;;;;;;;5.63;3.90;;;;;;;;;;6237271;23;20437;-53
2022/05/17 00:24:50;;;;;;;3.77;3.23;;;;;;;;;;6218909;23;20363;-53
2022/05/17 00:27:16;;;;;;;5.27;3.70;;;;;;;;;;6237273;23;20437;-53
2022/05/17 00:29:42;;;;;;;4.70;3.43;;;;;;;;;;6221323;23;20367;-53
2022/05/17 00:32:08;;;;;;;3.97;3.40;;;;;;;;;;6210556;23;20382;-53
2022/05/17 00:34:34;;;;;;;5.03;2.90;;;;;;;;;;6231467;23;20417;-53
2022/05/17 00:37:00;;;;;;;4.77;3.77;;;;;;;;;;6236390;22;20465;-53
2022/05/17 00:39:27;;;;;;;6.00;4.10;;;;;;;;;;6219335;23;20776;-53
2022/05/17 00:41:53;;;;;;;7.67;4.30;;;;;;;;;;6236556;23;20485;-53
2022/05/17 00:47:04;;;;;;;5.27;3.00;;;;;;;;;;6237505;23;20365;-53
2022/05/17 00:49:34;;;;;;;7.60;3.70;;;;;;;;;;6220932;23;21143;-53
2022/05/17 00:52:01;;;;;;;4.73;3.10;;;;;;;;;;6237067;23;20397;-53
2022/05/17 00:54:27;;;;;;;5.70;2.83;;;;;;;;;;6195295;23;20389;-52
2022/05/17 00:57:08;;;;;;;3.53;3.20;;;;;;;;;;6238670;23;20374;-56
2022/05/17 00:59:36;;;;;;;5.67;3.70;;;;;;;;;;6239072;22;20393;-51
2022/05/17 01:02:03;;;;;;;4.37;3.00;;;;;;;;;;6236860;23;20366;-53
2022/05/17 01:04:29;;;;;;;6.80;3.93;;;;;;;;;;6230722;23;20370;-53
2022/05/17 01:06:59;;;;;;;5.90;3.60;;;;;;;;;;6235750;23;20896;-53
2022/05/17 01:09:25;;;;;;;3.80;2.87;;;;;;;;;;6216928;23;20586;-52
2022/05/17 01:11:53;;;;;;;5.23;3.73;;;;;;;;;;6236397;23;20397;-52
2022/05/17 01:17:07;;;;;;;7.37;3.90;;;;;;;;;;6238683;23;20397;-52
2022/05/17 01:19:33;;;;;;;8.83;3.63;;;;;;;;;;6221692;23;20803;-52
2022/05/17 01:21:59;;;;;;;5.50;3.13;;;;;;;;;;6240340;23;20409;-53
2022/05/17 01:24:25;;;;;;;5.10;3.73;;;;;;;;;;6223603;23;20995;-52
2022/05/17 01:26:53;;;;;;;7.53;3.27;;;;;;;;;;6236968;23;20497;-52
2022/05/17 01:29:19;;;;;;;5.17;3.93;;;;;;;;;;6209236;23;20783;-53
2022/05/17 01:31:45;;;;;;;4.50;3.73;;;;;;;;;;6239313;23;20378;-53
2022/05/17 01:34:12;;;;;;;3.70;3.10;;;;;;;;;;6235895;23;20182;-54
2022/05/17 01:36:42;;;;;;;5.00;3.30;;;;;;;;;;6234937;23;20744;-53
2022/05/17 01:39:20;;;;;;;4.43;3.40;;;;;;;;;;6226694;22;20672;-53
2022/05/17 01:41:46;;;;;;;5.60;3.80;;;;;;;;;;6239981;23;20401;-53
2022/05/17 01:44:14;;;;;;;4.23;3.13;;;;;;;;;;6235795;23;20875;-54
2022/05/17 01:46:41;;;;;;;6.73;4.37;;;;;;;;;;6239954;23;20379;-53
2022/05/17 01:49:08;;;;;;;4.77;3.40;;;;;;;;;;6227792;22;20974;-53
2022/05/17 01:51:35;;;;;;;7.60;3.40;;;;;;;;;;6236276;23;20394;-54
2022/05/17 01:54:20;;;;;;;5.77;3.90;;;;;;;;;;6228973;22;20421;-53
2022/05/17 01:56:49;;;;;;;6.63;4.10;;;;;;;;;;6237682;22;20391;-53
2022/05/17 01:59:17;;;;;;;5.33;3.63;;;;;;;;;;6208833;23;20677;-53
2022/05/17 02:01:44;;;;;;;6.43;3.80;;;;;;;;;;6233969;22;20683;-55
2022/05/17 02:04:10;;;;;;;6.33;3.50;;;;;;;;;;6232650;22;20434;-53
2022/05/17 02:06:36;;;;;;;6.73;3.50;;;;;;;;;;6237912;23;20363;-54
2022/05/17 02:09:03;;;;;;;6.00;3.70;;;;;;;;;;6232654;22;20393;-52
2022/05/17 02:11:28;;;;;;;4.47;4.07;;;;;;;;;;6236412;23;20400;-53
2022/05/17 02:13:54;;;;;;;3.47;3.13;;;;;;;;;;6235464;23;20375;-53
2022/05/17 02:16:20;;;;;;;4.63;3.57;;;;;;;;;;6227677;23;20366;-52
2022/05/17 02:18:47;;;;;;;5.17;3.57;;;;;;;;;;6237469;23;20154;-52
2022/05/17 02:21:14;;;;;;;5.90;3.57;;;;;;;;;;6219808;22;21075;-52
2022/05/17 02:23:40;;;;;;;9.47;3.37;;;;;;;;;;6237861;23;20454;-53
2022/05/17 02:26:06;;;;;;;4.73;3.57;;;;;;;;;;6218778;23;20386;-54
2022/05/17 02:28:35;;;;;;;5.53;3.80;;;;;;;;;;6238757;23;20386;-52
2022/05/17 02:31:19;;;;;;;6.50;3.73;;;;;;;;;;6236070;22;20373;-52
2022/05/17 02:33:55;;;;;;;4.03;3.63;;;;;;;;;;6236277;23;20381;-52
2022/05/17 02:36:21;;;;;;;4.80;3.20;;;;;;;;;;6239980;22;20441;-54
2022/05/17 02:38:49;;;;;;;4.60;4.10;;;;;;;;;;6233214;23;20374;-52
2022/05/17 02:41:17;;;;;;;4.50;3.87;;;;;;;;;;6234908;23;20456;-53
2022/05/17 02:43:44;;;;;;;4.03;3.40;;;;;;;;;;6222702;22;20436;-53
2022/05/17 02:46:10;;;;;;;5.80;4.13;;;;;;;;;;6235844;23;20706;-53
2022/05/17 02:48:36;;;;;;;4.07;3.60;;;;;;;;;;6222908;23;20860;-53
2022/05/17 02:51:09;;;;;;;8.03;4.03;;;;;;;;;;6239521;23;20497;-53
2022/05/17 02:53:35;;;;;;;5.67;3.97;;;;;;;;;;6222992;23;20377;-54
2022/05/17 02:56:01;;;;;;;8.77;4.40;;;;;;;;;;6237950;23;20382;-54
2022/05/17 02:58:27;;;;;;;5.77;3.67;;;;;;;;;;6223607;23;20551;-53
2022/05/17 03:00:53;;;;;;;8.30;3.47;;;;;;;;;;6241509;23;20378;-54
2022/05/17 03:03:19;;;;;;;7.83;4.30;;;;;;;;;;6222268;23;20563;-53
2022/05/17 03:05:45;;;;;;;5.40;3.97;;;;;;;;;;6241522;23;20216;-52
2022/05/17 03:08:11;;;;;;;5.10;4.50;;;;;;;;;;6221846;22;20370;-52
2022/05/17 03:10:37;;;;;;;5.27;4.27;;;;;;;;;;6239843;23;20377;-56
2022/05/17 03:13:03;;;;;;;10.27;4.10;;;;;;;;;;6220727;23;20369;-53
2022/05/17 03:15:29;;;;;;;5.57;4.13;;;;;;;;;;6239281;23;20371;-52
2022/05/17 03:17:55;;;;;;;4.60;4.20;;;;;;;;;;6220986;23;20143;-52
2022/05/17 03:20:22;;;;;;;4.27;3.60;;;;;;;;;;6239551;23;20376;-52
2022/05/17 03:22:49;;;;;;;7.47;3.90;;;;;;;;;;6221193;22;20429;-52
2022/05/17 03:25:15;;;;;;;4.97;3.43;;;;;;;;;;6240923;23;20382;-52
2022/05/17 03:27:41;;;;;;;4.80;3.80;;;;;;;;;;6220873;23;20446;-52
2022/05/17 03:30:07;;;;;;;6.70;4.47;;;;;;;;;;6240358;23;20381;-53
2022/05/17 03:32:33;;;;;;;5.13;3.63;;;;;;;;;;6220911;23;20753;-53
2022/05/17 03:34:59;;;;;;;7.07;4.60;;;;;;;;;;6240914;23;20919;-53
2022/05/17 03:37:25;;;;;;;6.83;4.30;;;;;;;;;;6209332;23;20785;-52
2022/05/17 03:39:52;;;;;;;5.50;4.00;;;;;;;;;;6239196;23;20587;-52
2022/05/17 03:42:20;;;;;;;6.67;4.83;;;;;;;;;;6218047;22;20913;-52
2022/05/17 03:44:46;;;;;;;6.97;4.30;;;;;;;;;;6240569;23;20378;-52
2022/05/17 03:47:12;;;;;;;7.03;4.27;;;;;;;;;;6232146;23;20381;-53
2022/05/17 03:49:41;;;;;;;5.60;3.63;;;;;;;;;;6238508;23;20440;-53
2022/05/17 03:52:08;;;;;;;5.30;4.30;;;;;;;;;;6216810;23;20375;-53
2022/05/17 03:54:34;;;;;;;5.37;4.60;;;;;;;;;;6236875;22;20386;-52
2022/05/17 03:57:00;;;;;;;6.67;4.43;;;;;;;;;;6228121;23;20402;-53
2022/05/17 03:59:26;;;;;;;4.97;4.47;;;;;;;;;;6237892;23;20587;-53
2022/05/17 04:01:59;;;;;;;5.43;4.50;;;;;;;;;;6225871;23;20700;-52
2022/05/17 04:04:25;;;;;;;5.17;4.00;;;;;;;;;;6236596;22;20174;-52
2022/05/17 04:06:51;;;;;;;7.10;3.80;;;;;;;;;;6231041;23;21095;-53
2022/05/17 04:09:17;;;;;;;5.20;4.50;;;;;;;;;;6232257;23;20447;-53
2022/05/17 04:11:43;;;;;;;7.60;4.53;;;;;;;;;;6218986;23;20427;-53
2022/05/17 04:14:09;;;;;;;6.07;4.00;;;;;;;;;;6236140;23;20385;-52
2022/05/17 04:16:36;;;;;;;5.77;4.80;;;;;;;;;;6230255;23;20478;-53
2022/05/17 04:19:01;;;;;;;11.13;5.70;;;;;;;;;;6235215;23;20911;-53
2022/05/17 04:21:29;;;;;;;5.40;4.40;;;;;;;;;;6214286;23;20824;-50
2022/05/17 04:23:56;;;;;;;6.67;5.20;;;;;;;;;;6208045;23;20550;-53
2022/05/17 04:26:23;;;;;;;6.90;4.67;;;;;;;;;;6215036;22;20367;-53
2022/05/17 04:28:49;;;;;;;5.73;4.13;;;;;;;;;;6239951;22;20370;-52
2022/05/17 04:31:15;;;;;;;7.80;4.20;;;;;;;;;;6225205;23;20378;-52
2022/05/17 04:33:58;;;;;;;10.63;5.40;;;;;;;;;;6234092;23;20410;-52
2022/05/17 04:36:27;;;;;;;5.10;4.60;;;;;;;;;;6238132;22;20402;-52
2022/05/17 04:38:53;;;;;;;5.97;4.50;;;;;;;;;;6236883;23;20734;-52
2022/05/17 04:41:30;;;;;;;12.13;5.33;;;;;;;;;;6227578;22;20646;-52
2022/05/17 04:43:56;;;;;;;4.83;4.23;;;;;;;;;;6218757;23;20445;-52
2022/05/17 04:46:24;;;;;;;5.13;4.30;;;;;;;;;;6241641;23;20380;-54
2022/05/17 04:48:52;;;;;;;6.63;5.30;;;;;;;;;;6228486;23;20465;-51
2022/05/17 04:51:32;;;;;;;6.93;4.93;;;;;;;;;;6214619;22;20454;-52
2022/05/17 04:53:58;;;;;;;6.43;5.50;;;;;;;;;;6229995;22;20948;-51
2022/05/17 04:56:38;;;;;;;9.83;7.60;;;;;;;;;;6234037;23;20393;-52
2022/05/17 04:59:09;;;;;;;6.97;4.80;;;;;;;;;;6229452;22;20388;-52
2022/05/17 05:02:01;;;;;;;;;;;;;;;;;;;;;
2022/05/17 05:04:33;;;;;;;6.90;4.93;;;;;;;;;;6235770;22;20782;-52
2022/05/17 05:07:26;;;;;;;4.77;4.27;;;;;;;;;;6227731;23;20421;-53
2022/05/17 05:09:52;;;;;;;5.80;4.53;;;;;;;;;;6238637;22;20405;-52
2022/05/17 05:12:41;;;;;;;6.03;5.17;;;;;;;;;;6222296;23;20823;-52
2022/05/17 05:15:10;;;;;;;8.37;5.33;;;;;;;;;;6261021;22;20445;-55
2022/05/17 05:17:42;;;;;;;8.30;6.80;;;;;;;;;;6233237;22;20409;-56
2022/05/17 05:20:11;;;;;;;6.30;4.73;;;;;;;;;;6233422;22;20475;-53
2022/05/17 05:22:37;;;;;;;5.33;4.70;;;;;;;;;;6229482;23;20441;-53
2022/05/17 05:25:04;;;;;;;5.47;4.63;;;;;;;;;;6230305;23;20460;-52
2022/05/17 05:27:57;;;;;;;8.60;5.90;;;;;;;;;;6235388;23;20378;-53
2022/05/17 05:30:29;;;;;;;7.70;5.67;;;;;;;;;;6231771;22;20773;-53
2022/05/17 05:33:13;;;;;;;5.30;4.80;;;;;;;;;;6208892;23;20370;-53
2022/05/17 05:35:39;;;;;;;7.03;5.03;;;;;;;;;;6237251;23;20461;-54
2022/05/17 05:38:15;;;;;;;7.27;5.13;;;;;;;;;;6226509;23;20409;-53
2022/05/17 05:40:41;;;;;;;8.00;5.20;;;;;;;;;;6238777;23;20419;-54
2022/05/17 05:43:08;;;;;;;4.77;4.27;;;;;;;;;;6222396;22;20947;-52
2022/05/17 05:45:34;;;;;;;6.07;5.30;;;;;;;;;;6239945;23;20363;-54
2022/05/17 05:48:00;;;;;;;8.20;5.10;;;;;;;;;;6234442;22;20449;-52
2022/05/17 05:50:27;;;;;;;6.97;5.93;;;;;;;;;;6237404;23;20422;-53
2022/05/17 05:53:16;;;;;;;7.77;6.97;;;;;;;;;;6227706;23;20823;-53
2022/05/17 05:55:45;;;;;;;6.60;5.77;;;;;;;;;;6239443;22;20375;-54
2022/05/17 05:58:11;;;;;;;5.90;5.30;;;;;;;;;;6234507;22;20597;-53
2022/05/17 06:00:38;;;;;;;10.80;5.60;;;;;;;;;;6239462;23;20394;-52
2022/05/17 06:03:04;;;;;;;8.00;5.70;;;;;;;;;;6220872;23;20464;-52
2022/05/17 06:05:34;;;;;;;7.70;5.03;;;;;;;;;;6226365;22;20452;-51
2022/05/17 06:08:00;;;;;;;9.37;5.73;;;;;;;;;;6216288;22;20606;-52
2022/05/17 06:10:26;;;;;;;9.87;4.93;;;;;;;;;;6239807;23;20410;-53
2022/05/17 06:12:55;;;;;;;7.63;4.73;;;;;;;;;;6224676;22;20378;-52
2022/05/17 06:15:21;;;;;;;7.47;5.40;;;;;;;;;;6241881;23;20374;-53
2022/05/17 06:17:47;;;;;;;10.70;5.70;;;;;;;;;;6225162;23;20856;-53
2022/05/17 06:20:14;;;;;;;7.47;5.00;;;;;;;;;;6240356;23;20375;-53
2022/05/17 06:22:40;;;;;;;9.80;5.00;;;;;;;;;;6222397;23;20449;-55
2022/05/17 06:25:07;;;;;;;8.37;5.43;;;;;;;;;;6241882;23;20366;-52
2022/05/17 06:27:33;;;;;;;8.63;5.00;;;;;;;;;;6230548;23;20386;-53
2022/05/17 06:29:59;;;;;;;6.83;5.23;;;;;;;;;;6240499;23;20917;-54
2022/05/17 06:32:25;;;;;;;7.73;5.43;;;;;;;;;;6233826;22;20381;-53
2022/05/17 06:34:51;;;;;;;6.80;4.10;;;;;;;;;;6240879;23;20469;-54
2022/05/17 06:37:17;;;;;;;6.07;5.20;;;;;;;;;;6221184;23;20151;-54
2022/05/17 06:39:43;;;;;;;6.17;5.47;;;;;;;;;;6240474;22;20158;-54
2022/05/17 06:42:09;;;;;;;6.43;5.87;;;;;;;;;;6222601;23;20367;-53
2022/05/17 06:44:38;;;;;;;10.63;6.37;;;;;;;;;;6241697;23;20428;-53
2022/05/17 06:47:05;;;;;;;6.87;6.10;;;;;;;;;;6225213;23;20402;-52
2022/05/17 06:49:31;;;;;;;7.50;5.50;;;;;;;;;;6239829;23;20690;-54
2022/05/17 06:52:00;;;;;;;7.33;5.80;;;;;;;;;;6212946;22;20367;-52
2022/05/17 06:54:26;;;;;;;6.50;5.60;;;;;;;;;;6239505;23;20375;-53
2022/05/17 06:56:52;;;;;;;9.13;5.70;;;;;;;;;;6234504;23;20421;-52
2022/05/17 06:59:18;;;;;;;8.50;5.90;;;;;;;;;;6240916;23;20378;-52
2022/05/17 07:01:44;;;;;;;9.10;6.83;;;;;;;;;;6222403;23;20720;-52
2022/05/17 07:04:12;;;;;;;11.27;6.17;;;;;;;;;;6239514;23;20438;-53
2022/05/17 07:06:38;;;;;;;7.63;6.27;;;;;;;;;;6226196;23;20374;-53
2022/05/17 07:09:04;;;;;;;8.33;6.23;;;;;;;;;;6238843;23;20372;-54
2022/05/17 07:14:15;;;;;;;7.20;6.50;;;;;;;;;;6240488;23;20151;-53
2022/05/17 07:16:41;;;;;;;8.37;6.07;;;;;;;;;;6218919;22;20705;-53
2022/05/17 07:19:07;;;;;;;7.33;6.60;;;;;;;;;;6235197;23;21125;-51
2022/05/17 07:21:56;;;;;;;7.10;6.13;;;;;;;;;;6235159;23;20481;-52
2022/05/17 07:24:22;;;;;;;11.27;6.23;;;;;;;;;;6228653;23;20546;-53
2022/05/17 07:26:48;;;;;;;5.93;5.17;;;;;;;;;;6232068;23;21192;-53
2022/05/17 07:29:13;;;;;;;7.60;5.20;;;;;;;;;;6217562;23;20476;-53
2022/05/17 07:31:39;;;;;;;8.60;5.10;;;;;;;;;;6226390;23;20390;-53
2022/05/17 07:34:06;;;;;;;13.40;5.13;;;;;;;;;;6197265;23;20389;-52
2022/05/17 07:36:32;;;;;;;9.97;5.80;;;;;;;;;;6233621;22;20443;-53
2022/05/17 07:38:59;;;;;;;10.17;6.00;;;;;;;;;;6229346;23;20497;-52
2022/05/17 07:41:25;;;;;;;5.77;4.40;;;;;;;;;;6232592;22;20386;-52
2022/05/17 07:43:51;;;;;;;4.93;4.43;;;;;;;;;;6219602;23;20762;-52
2022/05/17 07:46:17;;;;;;;7.70;5.33;;;;;;;;;;6232425;23;20740;-52
2022/05/17 07:48:43;;;;;;;6.80;5.47;;;;;;;;;;6220629;23;20390;-51
2022/05/17 07:51:09;;;;;;;10.00;6.40;;;;;;;;;;6234426;22;20799;-51
2022/05/17 07:53:56;;;;;;;12.53;5.80;;;;;;;;;;6234288;23;20706;-53
2022/05/17 07:56:27;;;;;;;6.73;6.03;;;;;;;;;;6232185;23;20390;-52
2022/05/17 07:58:53;;;;;;;5.53;5.00;;;;;;;;;;6218842;23;20382;-52
2022/05/17 08:01:19;;;;;;;7.43;5.50;;;;;;;;;;6235516;23;20782;-53
2022/05/17 08:03:45;;;;;;;7.20;5.20;;;;;;;;;;6217485;23;21092;-50
2022/05/17 08:06:11;;;;;;;6.80;4.30;;;;;;;;;;6234124;23;20425;-50
2022/05/17 08:08:37;;;;;;;7.40;5.00;;;;;;;;;;6231140;23;20395;-50
2022/05/17 08:11:19;;;;;;;8.13;4.10;;;;;;;;;;6225900;23;20709;-53
2022/05/17 08:13:54;;;;;;;7.77;4.40;;;;;;;;;;6235632;23;20385;-50
2022/05/17 08:16:22;;;;;;;6.27;5.03;;;;;;;;;;6223666;22;20400;-51
2022/05/17 08:18:48;;;;;;;5.87;4.67;;;;;;;;;;6231111;23;20390;-52
2022/05/17 08:21:14;;;;;;;5.23;4.80;;;;;;;;;;6217999;23;20151;-51
2022/05/17 08:23:40;;;;;;;7.63;4.90;;;;;;;;;;6231295;23;20456;-53
2022/05/17 08:28:51;;;;;;;6.37;4.40;;;;;;;;;;6229309;23;20927;-52
2022/05/17 08:31:17;;;;;;;5.80;5.30;;;;;;;;;;6212235;23;20964;-51
2022/05/17 08:33:43;;;;;;;5.83;4.00;;;;;;;;;;6234976;23;20374;-55
2022/05/17 08:36:10;;;;;;;6.53;4.53;;;;;;;;;;6229060;23;20374;-52
2022/05/17 08:38:38;;;;;;;5.23;3.87;;;;;;;;;;6232170;23;20373;-51
2022/05/17 08:41:13;;;;;;;7.43;4.30;;;;;;;;;;6216252;22;20469;-52
2022/05/17 08:43:51;;;;;;;6.93;4.50;;;;;;;;;;6231593;23;20433;-51
2022/05/17 08:46:23;;;;;;;7.00;4.80;;;;;;;;;;6213754;23;21006;-51
2022/05/17 08:48:50;;;;;;;5.50;3.80;;;;;;;;;;6231224;23;20385;-52
2022/05/17 08:51:18;;;;;;;5.00;4.50;;;;;;;;;;6210380;23;20963;-52
2022/05/17 08:53:44;;;;;;;12.30;4.30;;;;;;;;;;6233711;23;20362;-51
2022/05/17 08:56:12;;;;;;;8.30;4.43;;;;;;;;;;6211269;22;20497;-53
2022/05/17 08:58:38;;;;;;;4.90;4.43;;;;;;;;;;6233460;23;20374;-53
2022/05/17 09:01:07;;;;;;;6.87;4.27;;;;;;;;;;6211148;23;20377;-54
2022/05/17 09:03:39;;;;;;;8.23;3.83;;;;;;;;;;6231270;22;20238;-51
2022/05/17 09:06:23;;;;;;;6.37;4.80;;;;;;;;;;6223131;23;20370;-53
2022/05/17 09:09:08;;;;;;;5.53;4.27;;;;;;;;;;6232350;23;20385;-52
2022/05/17 09:11:43;;;;;;;5.90;4.50;;;;;;;;;;6212552;23;20385;-53
2022/05/17 09:14:15;;;;;;;6.77;4.70;;;;;;;;;;6215380;23;20396;-53
2022/05/17 09:16:42;;;;;;;8.30;4.37;;;;;;;;;;6231256;23;20371;-53
2022/05/17 09:19:08;;;;;;;4.60;4.20;;;;;;;;;;6217110;23;20464;-53
2022/05/17 09:21:35;;;;;;;6.80;4.70;;;;;;;;;;6233171;23;20856;-52
2022/05/17 09:24:05;;;;;;;6.07;4.10;;;;;;;;;;6207124;23;21145;-53
2022/05/17 09:26:31;;;;;;;4.03;3.60;;;;;;;;;;6230797;23;20399;-53
2022/05/17 09:29:00;;;;;;;5.30;3.70;;;;;;;;;;6206701;23;21242;-54
2022/05/17 09:31:28;;;;;;;4.27;3.87;;;;;;;;;;6230091;23;20151;-51
2022/05/17 09:33:55;;;;;;;5.50;3.53;;;;;;;;;;6214848;22;20440;-51
2022/05/17 09:36:22;;;;;;;7.03;4.10;;;;;;;;;;6228213;23;20370;-52
2022/05/17 09:38:48;;;;;;;4.57;4.10;;;;;;;;;;6229228;23;20718;-52
2022/05/17 09:41:16;;;;;;;5.10;4.37;;;;;;;;;;6201738;23;20390;-54
2022/05/17 09:43:53;;;;;;;6.20;4.23;;;;;;;;;;6225606;23;20434;-53
2022/05/17 09:46:27;;;;;;;10.93;4.30;;;;;;;;;;6229890;23;20460;-52
2022/05/17 09:54:45;;;;;;;5.93;4.43;;;;;;;;;;6233713;23;20440;-53
2022/05/17 09:57:17;;;;;;;4.83;3.93;;;;;;;;;;6219349;23;20370;-53
2022/05/17 09:59:43;;;;;;;5.47;3.97;;;;;;;;;;6232746;22;20392;-53
2022/05/17 10:02:25;;;;;;;3.83;3.23;;;;;;;;;;6205412;23;21111;-53
2022/05/17 10:04:51;;;;;;;4.63;3.40;;;;;;;;;;6233131;23;20428;-52
2022/05/17 10:07:18;;;;;;;4.90;4.00;;;;;;;;;;6214380;23;20796;-51
2022/05/17 10:09:45;;;;;;;4.33;3.80;;;;;;;;;;6229724;23;20680;-52
2022/05/17 10:12:13;;;;;;;6.20;4.03;;;;;;;;;;6211289;22;20382;-53
2022/05/17 10:14:53;;;;;;;4.23;3.13;;;;;;;;;;6229071;23;20392;-53
2022/05/17 10:17:41;;;;;;;4.43;3.93;;;;;;;;;;6214358;23;20856;-52
2022/05/17 10:20:07;;;;;;;6.30;3.63;;;;;;;;;;6230292;23;20432;-52
2022/05/17 10:22:51;;;;;;;6.43;3.30;;;;;;;;;;6212663;23;20452;-52
2022/05/17 10:25:26;;;;;;;4.63;3.00;;;;;;;;;;6232861;23;20366;-52
2022/05/17 10:27:57;;;;;;;4.30;2.73;;;;;;;;;;6225343;23;20377;-52
2022/05/17 10:30:28;;;;;;;7.73;3.90;;;;;;;;;;6231588;23;20386;-51
2022/05/17 10:32:59;;;;;;;3.80;3.10;;;;;;;;;;6208526;23;20767;-53
2022/05/17 10:35:33;;;;;;;5.10;3.30;;;;;;;;;;6235276;22;20514;-53
2022/05/17 10:38:02;;;;;;;7.03;3.50;;;;;;;;;;6197165;23;20577;-53
2022/05/17 10:40:32;;;;;;;5.80;3.07;;;;;;;;;;6234864;22;20385;-51
2022/05/17 10:42:59;;;;;;;4.40;3.47;;;;;;;;;;6213812;23;20793;-54
2022/05/17 10:45:32;;;;;;;6.50;3.83;;;;;;;;;;6235113;22;20444;-53
2022/05/17 10:48:13;;;;;;;3.70;3.20;;;;;;;;;;6219362;22;20947;-52
2022/05/17 10:50:51;;;;;;;4.97;3.57;;;;;;;;;;6234011;23;20397;-52
2022/05/17 10:53:23;;;;;;;5.00;3.07;;;;;;;;;;6212138;23;20381;-55
2022/05/17 10:56:01;;;;;;;3.47;3.17;;;;;;;;;;6208974;23;20683;-52
2022/05/17 10:58:48;;;;;;;4.80;3.50;;;;;;;;;;6229013;23;20366;-52
2022/05/17 11:01:23;;;;;;;4.27;3.30;;;;;;;;;;6220871;22;20377;-52
2022/05/17 11:03:48;;;;;;;4.20;3.67;;;;;;;;;;6231157;23;20429;-52
2022/05/17 11:06:26;;;;;;;8.47;4.43;;;;;;;;;;6204882;23;20450;-52
2022/05/17 11:08:55;;;;;;;4.57;3.30;;;;;;;;;;6232960;22;20162;-52
2022/05/17 11:11:34;;;;;;;5.07;3.27;;;;;;;;;;6228375;23;20366;-53
2022/05/17 11:14:08;;;;;;;3.73;3.33;;;;;;;;;;6224957;22;21289;-53
2022/05/17 11:16:36;;;;;;;3.50;2.80;;;;;;;;;;6226229;23;20866;-52
2022/05/17 11:19:05;;;;;;;3.37;2.70;;;;;;;;;;6232202;22;20405;-53
2022/05/17 11:21:42;;;;;;;5.63;4.73;;;;;;;;;;6214753;23;20375;-53
2022/05/17 11:24:28;;;;;;;2.60;2.40;;;;;;;;;;6231183;23;21055;-54
2022/05/17 11:27:08;;;;;;;3.73;2.60;;;;;;;;;;6215306;22;20393;-53
2022/05/17 11:29:47;;;;;;;4.40;2.80;;;;;;;;;;6232668;22;20961;-52
2022/05/17 11:32:23;;;;;;;3.43;2.80;;;;;;;;;;6225312;23;20397;-53
2022/05/17 11:34:49;;;;;;;2.67;2.17;;;;;;;;;;6232066;22;20718;-52
2022/05/17 11:37:33;;;;;;;3.40;2.70;;;;;;;;;;6214059;23;20389;-53
2022/05/17 11:40:04;;;;;;;5.00;3.00;;;;;;;;;;6231217;23;20861;-54
2022/05/17 11:42:30;;;;;;;4.13;2.73;;;;;;;;;;6210610;22;20462;-53
2022/05/17 11:44:56;;;;;;;3.33;2.87;;;;;;;;;;6230591;23;20374;-52
2022/05/17 11:47:33;;;;;;;4.00;2.83;;;;;;;;;;6203657;23;20418;-53
2022/05/17 11:50:21;;;;;;;6.27;3.20;;;;;;;;;;6232895;22;20431;-53
2022/05/17 11:52:47;;;;;;;5.10;2.57;;;;;;;;;;6213121;22;20398;-53
2022/05/17 11:55:21;;;;;;;3.70;3.00;;;;;;;;;;6231335;23;20436;-53
2022/05/17 11:57:47;;;;;;;5.37;3.63;;;;;;;;;;6213574;23;20805;-54
2022/05/17 12:00:27;;;;;;;3.90;3.03;;;;;;;;;;6229931;23;20449;-53
2022/05/17 12:02:58;;;;;;;4.23;2.63;;;;;;;;;;6211239;22;20186;-51
2022/05/17 12:05:43;;;;;;;6.67;2.60;;;;;;;;;;6231308;22;20481;-53
2022/05/17 12:08:27;;;;;;;3.83;2.50;;;;;;;;;;6214716;22;20401;-52
2022/05/17 12:11:12;;;;;;;4.97;3.07;;;;;;;;;;6208799;23;20381;-53
2022/05/17 12:13:44;;;;;;;3.80;3.10;;;;;;;;;;6231754;23;20429;-52
2022/05/17 12:16:10;;;;;;;5.10;3.00;;;;;;;;;;6214566;23;20936;-51
2022/05/17 12:18:38;;;;;;;3.30;2.70;;;;;;;;;;6226023;23;20396;-51
2022/05/17 12:21:11;;;;;;;3.93;2.50;;;;;;;;;;6219517;23;20190;-53
2022/05/17 12:23:44;;;;;;;4.17;2.87;;;;;;;;;;6227417;23;20727;-52
2022/05/17 12:26:31;;;;;;;4.90;3.40;;;;;;;;;;6214451;23;20465;-51
2022/05/17 12:30:52;;;;;;;6.30;3.00;;;;;;;;;;6195717;23;20382;-53
2022/05/17 12:31:43;;;;;;;5.50;3.07;;;;;;;;;;6210395;23;20381;-53
2022/05/17 12:34:09;;;;;;;4.70;2.90;;;;;;;;;;6230154;23;20378;-52
2022/05/17 12:36:37;;;;;;;4.63;3.50;;;;;;;;;;6216500;23;20191;-51
2022/05/17 12:44:46;;;;;;;5.43;2.70;;;;;;;;;;6229048;23;20432;-52
2022/05/17 12:47:19;;;;;;;3.70;2.57;;;;;;;;;;6209244;23;20729;-52
2022/05/17 12:49:45;;;;;;;3.93;2.90;;;;;;;;;;6230887;23;20394;-52
2022/05/17 12:52:19;;;;;;;3.03;2.37;;;;;;;;;;6211436;23;20401;-54
2022/05/17 12:54:45;;;;;;;3.70;2.30;;;;;;;;;;6229371;23;20822;-52
2022/05/17 12:57:18;;;;;;;4.70;2.20;;;;;;;;;;6224255;23;20780;-53
2022/05/17 12:59:44;;;;;;;3.00;2.40;;;;;;;;;;6231490;23;20378;-53
2022/05/17 13:02:10;;;;;;;3.50;2.23;;;;;;;;;;6212426;23;20392;-52
2022/05/17 13:04:37;;;;;;;4.13;2.20;;;;;;;;;;6232879;23;20434;-53
2022/05/17 13:07:07;;;;;;;6.90;2.33;;;;;;;;;;6211768;23;20234;-53
2022/05/17 13:09:33;;;;;;;3.50;2.30;;;;;;;;;;6234816;22;20378;-53
2022/05/17 13:12:00;;;;;;;5.23;2.10;;;;;;;;;;6219286;23;20943;-52
2022/05/17 13:14:30;;;;;;;3.73;1.93;;;;;;;;;;6231570;23;20151;-52
2022/05/17 13:16:57;;;;;;;2.40;1.90;;;;;;;;;;6216213;23;20370;-51
2022/05/17 13:19:23;;;;;;;3.20;1.93;;;;;;;;;;6232215;23;20475;-51
2022/05/17 13:21:54;;;;;;;4.33;2.00;;;;;;;;;;6221763;23;20389;-52
2022/05/17 13:24:27;;;;;;;3.53;1.40;;;;;;;;;;6232590;22;20430;-54
2022/05/17 13:26:53;;;;;;;2.80;1.90;;;;;;;;;;6209363;23;21287;-52
2022/05/17 13:29:35;;;;;;;3.80;1.70;;;;;;;;;;6229928;23;20453;-53
2022/05/17 13:32:02;;;;;;;4.10;2.20;;;;;;;;;;6202979;23;20378;-52
2022/05/17 13:34:33;;;;;;;3.60;1.70;;;;;;;;;;6193956;23;20413;-52
2022/05/17 13:37:04;;;;;;;3.30;1.33;;;;;;;;;;6227352;23;20436;-51
2022/05/17 13:39:30;;;;;;;4.20;1.47;;;;;;;;;;6211785;23;20389;-53
2022/05/17 13:41:57;;;;;;;11.60;1.83;;;;;;;;;;6218211;23;20473;-53
2022/05/17 13:44:30;;;;;;;2.20;1.60;;;;;;;;;;6221769;22;20457;-51
2022/05/17 13:46:56;;;;;;;2.87;1.67;;;;;;;;;;6220159;22;20606;-53
2022/05/17 13:49:31;;;;;;;2.40;1.60;;;;;;;;;;6222868;23;20387;-53
2022/05/17 13:52:02;;;;;;;3.80;1.83;;;;;;;;;;6221644;23;20753;-53
2022/05/17 13:54:54;;;;;;;2.50;1.90;;;;;;;;;;6224852;23;20405;-52
2022/05/17 13:57:27;;;;;;;7.80;2.27;;;;;;;;;;6207428;23;20401;-53
2022/05/17 13:59:56;;;;;;;2.30;1.70;;;;;;;;;;6228785;23;20375;-51
2022/05/17 14:02:33;;;;;;;3.30;1.70;;;;;;;;;;6206580;23;20940;-51
2022/05/17 14:05:10;;;;;;;4.83;1.90;;;;;;;;;;6227030;23;20370;-50
2022/05/17 14:07:46;;;;;;;3.27;1.97;;;;;;;;;;6229781;22;20378;-52
2022/05/17 14:13:08;;;;;;;2.20;1.60;;;;;;;;;;6220492;23;20412;-52
2022/05/17 14:15:37;;;;;;;4.17;2.10;;;;;;;;;;6229246;23;20370;-51
2022/05/17 14:18:04;;;;;;;2.10;1.37;;;;;;;;;;6206974;23;20370;-50
2022/05/17 14:20:33;;;;;;;2.77;1.30;;;;;;;;;;6226374;22;20758;-53
2022/05/17 14:23:35;;;;;;;2.33;1.60;;;;;;;;;;6222618;23;20441;-53
2022/05/17 14:26:14;;;;;;;6.03;1.80;;;;;;;;;;6221990;22;20381;-52
2022/05/17 14:28:41;;;;;;;2.23;1.30;;;;;;;;;;6232406;23;20374;-54
2022/05/17 14:31:21;;;;;;;2.40;1.70;;;;;;;;;;6219927;23;20747;-51
2022/05/17 14:33:47;;;;;;;9.13;2.60;;;;;;;;;;6230474;23;20385;-53
2022/05/17 14:36:16;;;;;;;12.33;2.40;;;;;;;;;;6223995;23;20378;-53
2022/05/17 14:38:42;;;;;;;4.77;2.40;;;;;;;;;;6218467;23;20714;-52
2022/05/17 14:41:14;;;;;;;4.50;1.90;;;;;;;;;;6232796;23;20500;-52
2022/05/17 14:43:40;;;;;;;5.17;1.37;;;;;;;;;;6218487;23;21141;-53
2022/05/17 14:46:06;;;;;;;4.67;2.10;;;;;;;;;;6232959;23;20382;-51
2022/05/17 14:48:32;;;;;;;7.20;2.13;;;;;;;;;;6223480;23;20660;-50
2022/05/17 14:51:05;;;;;;;2.60;1.70;;;;;;;;;;6233131;23;20382;-54
2022/05/17 14:53:31;;;;;;;5.33;1.77;;;;;;;;;;6223089;23;20858;-51
2022/05/17 14:55:59;;;;;;;2.20;1.47;;;;;;;;;;6231320;23;20864;-53
2022/05/17 14:58:26;;;;;;;2.53;1.90;;;;;;;;;;6225658;22;20384;-52
2022/05/17 15:00:52;;;;;;;2.13;1.40;;;;;;;;;;6230486;23;20374;-52
2022/05/17 15:03:22;;;;;;;2.47;1.60;;;;;;;;;;6217495;22;20900;-52
2022/05/17 15:05:48;;;;;;;2.60;1.70;;;;;;;;;;6232493;23;20378;-52
2022/05/17 15:08:14;;;;;;;2.80;1.90;;;;;;;;;;6215778;23;20461;-54
2022/05/17 15:10:40;;;;;;;2.77;1.80;;;;;;;;;;6230349;23;20844;-53
2022/05/17 15:13:06;;;;;;;6.03;1.60;;;;;;;;;;6222595;23;20895;-53
2022/05/17 15:15:32;;;;;;;2.17;1.37;;;;;;;;;;6232576;23;20374;-52
2022/05/17 15:18:03;;;;;;;2.73;1.60;;;;;;;;;;6213785;23;20778;-53
2022/05/17 15:20:29;;;;;;;4.00;2.47;;;;;;;;;;6232990;23;20370;-53
2022/05/17 15:22:56;;;;;;;3.30;2.00;;;;;;;;;;6219546;23;20976;-53